Time;durP1;ratioP1;P1;durP2;ratioP2;P2;SDS_P1;SDS_P2;PMS_P1;PMS_P2;Temp;Humidity;BMP_temperature;BMP_pressure;BME280_temperature;BME280_humidity;BME280_pressure;Samples;Min_cycle;Max_cycle;Signal;HPM_P1;HPM_P2
2022/08/02 00:02:08;;;;;;;4.70;4.30;;;;;;;;;;5066040;28;20182;-73
2022/08/02 00:04:34;;;;;;;4.30;3.90;;;;;;;;;;5071191;28;20205;-73
2022/08/02 00:07:00;;;;;;;4.50;4.10;;;;;;;;;;5060490;28;20184;-73
2022/08/02 00:09:26;;;;;;;3.97;3.57;;;;;;;;;;5063211;28;20196;-73
2022/08/02 00:11:52;;;;;;;4.20;3.80;;;;;;;;;;5066614;28;20231;-73
2022/08/02 00:14:19;;;;;;;4.00;3.50;;;;;;;;;;5059587;28;20201;-73
2022/08/02 00:16:45;;;;;;;4.70;3.67;;;;;;;;;;5055598;28;20205;-73
2022/08/02 00:19:11;;;;;;;5.10;4.00;;;;;;;;;;5076456;28;20184;-73
2022/08/02 00:21:37;;;;;;;4.03;3.70;;;;;;;;;;5066783;28;20192;-73
2022/08/02 00:24:04;;;;;;;4.53;4.00;;;;;;;;;;5068366;28;20567;-73
2022/08/02 00:26:30;;;;;;;4.07;3.73;;;;;;;;;;5078029;28;20680;-73
2022/08/02 00:28:56;;;;;;;4.50;4.10;;;;;;;;;;5068914;28;20623;-73
2022/08/02 00:31:22;;;;;;;4.00;3.70;;;;;;;;;;5053220;28;20209;-73
2022/08/02 00:33:49;;;;;;;4.23;3.93;;;;;;;;;;5058224;28;20233;-73
2022/08/02 00:36:15;;;;;;;4.37;3.97;;;;;;;;;;5062605;28;20265;-73
2022/08/02 00:38:41;;;;;;;4.07;3.77;;;;;;;;;;5060286;28;20221;-73
2022/08/02 00:41:11;;;;;;;3.90;3.60;;;;;;;;;;5054881;28;20182;-73
2022/08/02 00:43:38;;;;;;;4.40;3.80;;;;;;;;;;5060142;28;20185;-73
2022/08/02 00:46:04;;;;;;;4.00;3.43;;;;;;;;;;5055655;28;20192;-72
2022/08/02 00:48:30;;;;;;;4.93;3.87;;;;;;;;;;5055038;28;20178;-73
2022/08/02 00:50:56;;;;;;;4.03;3.73;;;;;;;;;;5050329;28;20280;-73
2022/08/02 00:53:22;;;;;;;4.70;4.00;;;;;;;;;;5064823;28;20634;-73
2022/08/02 00:55:49;;;;;;;4.63;4.23;;;;;;;;;;5065994;28;20227;-73
2022/08/02 00:58:16;;;;;;;4.53;4.13;;;;;;;;;;5063207;28;20169;-73
2022/08/02 01:00:42;;;;;;;7.03;4.27;;;;;;;;;;5068586;28;20189;-73
2022/08/02 01:03:08;;;;;;;5.13;4.70;;;;;;;;;;5061105;28;20185;-73
2022/08/02 01:05:34;;;;;;;6.57;5.40;;;;;;;;;;5059748;28;20235;-73
2022/08/02 01:08:01;;;;;;;5.33;4.93;;;;;;;;;;5062486;28;20192;-73
2022/08/02 01:10:27;;;;;;;5.20;4.80;;;;;;;;;;5064458;28;20208;-73
2022/08/02 01:12:54;;;;;;;5.60;5.10;;;;;;;;;;5069453;28;20653;-73
2022/08/02 01:15:21;;;;;;;5.50;5.00;;;;;;;;;;5061534;28;20201;-73
2022/08/02 01:17:52;;;;;;;5.83;5.30;;;;;;;;;;5053818;28;20262;-74
2022/08/02 01:20:18;;;;;;;5.80;5.30;;;;;;;;;;5063293;28;20173;-73
2022/08/02 01:22:47;;;;;;;5.67;5.20;;;;;;;;;;5058710;28;20537;-74
2022/08/02 01:25:26;;;;;;;6.80;5.47;;;;;;;;;;5071884;28;20201;-73
2022/08/02 01:28:05;;;;;;;5.07;4.60;;;;;;;;;;5066146;28;20185;-73
2022/08/02 01:30:32;;;;;;;4.60;4.23;;;;;;;;;;5072474;28;20234;-73
2022/08/02 01:33:01;;;;;;;5.00;4.60;;;;;;;;;;5079745;28;20173;-73
2022/08/02 01:35:38;;;;;;;6.57;4.40;;;;;;;;;;5094525;28;20188;-73
2022/08/02 01:38:06;;;;;;;6.03;4.43;;;;;;;;;;5074173;28;20328;-73
2022/08/02 01:40:34;;;;;;;5.00;4.50;;;;;;;;;;5073468;28;20196;-73
2022/08/02 01:43:01;;;;;;;4.57;4.17;;;;;;;;;;5073286;28;20559;-73
2022/08/02 01:45:31;;;;;;;4.43;3.90;;;;;;;;;;5067089;28;20213;-73
2022/08/02 01:47:59;;;;;;;4.97;3.97;;;;;;;;;;5055052;28;20170;-73
2022/08/02 01:50:26;;;;;;;4.50;4.10;;;;;;;;;;5070641;28;20239;-73
2022/08/02 01:52:56;;;;;;;4.83;4.47;;;;;;;;;;5068504;28;20264;-73
2022/08/02 01:55:23;;;;;;;5.20;4.80;;;;;;;;;;5069822;28;20255;-73
2022/08/02 01:57:50;;;;;;;6.10;4.50;;;;;;;;;;5054128;28;20178;-73
2022/08/02 02:00:17;;;;;;;5.43;4.93;;;;;;;;;;5054749;28;20288;-73
2022/08/02 02:02:46;;;;;;;5.40;4.87;;;;;;;;;;5060631;28;20685;-73
2022/08/02 02:05:19;;;;;;;5.60;5.00;;;;;;;;;;5075318;28;20283;-73
2022/08/02 02:07:49;;;;;;;4.87;4.47;;;;;;;;;;5061759;28;20708;-73
2022/08/02 02:10:18;;;;;;;4.53;4.23;;;;;;;;;;5072285;28;20230;-73
2022/08/02 02:12:46;;;;;;;5.23;4.83;;;;;;;;;;5057748;28;20185;-73
2022/08/02 02:15:13;;;;;;;5.23;4.73;;;;;;;;;;5073373;28;20219;-73
2022/08/02 02:17:42;;;;;;;5.60;5.10;;;;;;;;;;5058252;28;20212;-73
2022/08/02 02:20:09;;;;;;;5.53;5.07;;;;;;;;;;5064230;28;20220;-72
2022/08/02 02:22:35;;;;;;;5.47;4.97;;;;;;;;;;5076924;28;20289;-73
2022/08/02 02:25:01;;;;;;;6.77;4.80;;;;;;;;;;5074625;28;20414;-73
2022/08/02 02:27:28;;;;;;;4.83;4.43;;;;;;;;;;5073490;28;20185;-73
2022/08/02 02:29:56;;;;;;;5.73;5.13;;;;;;;;;;5073261;28;20197;-73
2022/08/02 02:32:22;;;;;;;4.90;4.50;;;;;;;;;;5072531;28;20201;-73
2022/08/02 02:34:49;;;;;;;4.97;4.47;;;;;;;;;;5072157;28;20215;-73
2022/08/02 02:37:18;;;;;;;5.00;4.60;;;;;;;;;;5071915;28;20184;-73
2022/08/02 02:39:45;;;;;;;5.03;4.53;;;;;;;;;;5062444;28;20272;-73
2022/08/02 02:42:13;;;;;;;4.63;4.33;;;;;;;;;;5052800;28;20239;-73
2022/08/02 02:44:40;;;;;;;5.87;4.83;;;;;;;;;;5052865;28;20202;-73
2022/08/02 02:47:06;;;;;;;5.23;4.73;;;;;;;;;;5052988;28;20178;-73
2022/08/02 02:49:34;;;;;;;6.00;5.50;;;;;;;;;;5055757;28;20261;-73
2022/08/02 02:52:01;;;;;;;6.03;5.53;;;;;;;;;;5066412;28;20220;-73
2022/08/02 02:54:28;;;;;;;7.43;5.70;;;;;;;;;;5069685;28;20666;-73
2022/08/02 02:56:54;;;;;;;6.47;5.87;;;;;;;;;;5061297;28;20201;-73
2022/08/02 02:59:20;;;;;;;6.30;5.80;;;;;;;;;;5062869;28;20656;-73
2022/08/02 03:01:47;;;;;;;6.13;5.63;;;;;;;;;;5069301;28;20189;-73
2022/08/02 03:04:13;;;;;;;6.03;5.30;;;;;;;;;;5066980;28;20552;-73
2022/08/02 03:06:40;;;;;;;6.00;5.50;;;;;;;;;;5067953;28;20189;-73
2022/08/02 03:09:07;;;;;;;6.33;5.80;;;;;;;;;;5066455;28;20599;-73
2022/08/02 03:11:34;;;;;;;5.97;5.07;;;;;;;;;;5065182;28;20673;-73
2022/08/02 03:14:01;;;;;;;5.83;5.33;;;;;;;;;;5068876;28;20791;-73
2022/08/02 03:16:28;;;;;;;5.80;5.30;;;;;;;;;;5069917;28;20174;-73
2022/08/02 03:18:54;;;;;;;6.03;5.47;;;;;;;;;;5072411;28;20729;-73
2022/08/02 03:21:20;;;;;;;5.43;4.93;;;;;;;;;;5064733;28;20294;-73
2022/08/02 03:23:47;;;;;;;5.53;5.03;;;;;;;;;;5068275;28;20212;-73
2022/08/02 03:26:13;;;;;;;5.37;4.97;;;;;;;;;;5071950;28;20182;-73
2022/08/02 03:28:40;;;;;;;5.93;5.43;;;;;;;;;;5065967;28;20181;-73
2022/08/02 03:31:06;;;;;;;5.53;5.03;;;;;;;;;;5060537;28;20577;-73
2022/08/02 03:33:33;;;;;;;5.07;4.67;;;;;;;;;;5065604;28;20686;-73
2022/08/02 03:36:07;;;;;;;5.50;5.00;;;;;;;;;;5071459;28;20207;-73
2022/08/02 03:38:34;;;;;;;5.50;5.10;;;;;;;;;;5072901;28;20180;-73
2022/08/02 03:41:02;;;;;;;5.70;5.20;;;;;;;;;;5064802;28;20185;-73
2022/08/02 03:43:28;;;;;;;5.57;4.67;;;;;;;;;;5061258;28;20178;-73
2022/08/02 03:45:55;;;;;;;5.53;4.90;;;;;;;;;;5068470;28;20256;-73
2022/08/02 03:48:22;;;;;;;5.03;4.63;;;;;;;;;;5065448;28;20580;-73
2022/08/02 03:50:49;;;;;;;6.03;5.50;;;;;;;;;;5070322;28;20274;-73
2022/08/02 03:53:17;;;;;;;4.83;4.33;;;;;;;;;;5068027;28;20177;-73
2022/08/02 03:55:43;;;;;;;6.00;5.40;;;;;;;;;;5065710;28;20212;-73
2022/08/02 03:58:16;;;;;;;5.60;5.10;;;;;;;;;;5061335;28;20218;-73
2022/08/02 04:00:42;;;;;;;5.13;4.70;;;;;;;;;;5073185;28;20196;-73
2022/08/02 04:03:08;;;;;;;5.13;4.73;;;;;;;;;;5071341;28;20181;-73
2022/08/02 04:05:34;;;;;;;4.90;4.50;;;;;;;;;;5064004;28;20202;-73
2022/08/02 04:08:00;;;;;;;4.77;4.37;;;;;;;;;;5065617;28;20177;-73
2022/08/02 04:10:27;;;;;;;5.30;4.80;;;;;;;;;;5057220;28;20233;-73
2022/08/02 04:12:53;;;;;;;5.20;4.80;;;;;;;;;;5070837;28;20204;-73
2022/08/02 04:15:20;;;;;;;5.60;4.63;;;;;;;;;;5065087;28;20202;-73
2022/08/02 04:17:52;;;;;;;5.80;5.20;;;;;;;;;;5067104;28;20280;-73
2022/08/02 04:20:19;;;;;;;6.00;5.50;;;;;;;;;;5075119;28;20169;-73
2022/08/02 04:22:48;;;;;;;5.53;5.03;;;;;;;;;;5082367;28;20719;-73
2022/08/02 04:25:15;;;;;;;5.77;5.27;;;;;;;;;;5068326;28;20236;-73
2022/08/02 04:27:42;;;;;;;5.57;5.13;;;;;;;;;;5091177;28;20195;-73
2022/08/02 04:30:09;;;;;;;5.57;5.17;;;;;;;;;;5077894;28;20188;-73
2022/08/02 04:32:36;;;;;;;6.87;5.50;;;;;;;;;;5073661;28;20288;-73
2022/08/02 04:35:03;;;;;;;6.23;5.73;;;;;;;;;;5072907;28;20299;-73
2022/08/02 04:37:29;;;;;;;6.07;5.50;;;;;;;;;;5082136;28;20188;-73
2022/08/02 04:39:55;;;;;;;6.67;6.07;;;;;;;;;;5083866;28;20212;-73
2022/08/02 04:42:25;;;;;;;5.53;5.03;;;;;;;;;;5082142;28;20181;-73
2022/08/02 04:44:52;;;;;;;5.73;5.23;;;;;;;;;;5077099;28;20210;-73
2022/08/02 04:47:20;;;;;;;6.10;5.60;;;;;;;;;;5091310;28;20533;-73
2022/08/02 04:49:46;;;;;;;6.13;5.63;;;;;;;;;;5064707;28;20181;-73
2022/08/02 04:52:12;;;;;;;6.37;5.83;;;;;;;;;;5069868;28;20291;-73
2022/08/02 04:54:39;;;;;;;5.93;5.30;;;;;;;;;;5087594;28;20231;-73
2022/08/02 04:57:53;;;;;;;5.53;5.03;;;;;;;;;;5076563;28;20199;-73
2022/08/02 04:59:51;;;;;;;6.33;5.53;;;;;;;;;;5072789;28;20184;-73
2022/08/02 05:02:17;;;;;;;5.90;5.40;;;;;;;;;;5070869;28;20597;-73
2022/08/02 05:04:43;;;;;;;5.90;5.40;;;;;;;;;;5078301;28;20623;-73
2022/08/02 05:07:09;;;;;;;5.93;5.33;;;;;;;;;;5070140;28;20279;-73
2022/08/02 05:09:35;;;;;;;5.83;5.23;;;;;;;;;;5073463;28;20189;-73
2022/08/02 05:12:01;;;;;;;6.53;5.83;;;;;;;;;;5074918;28;20269;-73
2022/08/02 05:14:28;;;;;;;6.77;5.90;;;;;;;;;;5083593;28;20304;-73
2022/08/02 05:16:54;;;;;;;6.67;5.90;;;;;;;;;;5073985;28;20173;-73
2022/08/02 05:19:20;;;;;;;6.03;5.47;;;;;;;;;;5069373;28;20539;-73
2022/08/02 05:21:46;;;;;;;6.10;5.50;;;;;;;;;;5064749;28;20197;-73
2022/08/02 05:24:12;;;;;;;5.80;5.30;;;;;;;;;;5064205;28;20219;-73
2022/08/02 05:26:39;;;;;;;7.90;5.50;;;;;;;;;;5054869;28;20185;-73
2022/08/02 05:29:05;;;;;;;6.70;6.00;;;;;;;;;;5067714;28;20174;-73
2022/08/02 05:31:31;;;;;;;6.73;5.40;;;;;;;;;;5063394;28;20208;-73
2022/08/02 05:33:57;;;;;;;7.13;5.60;;;;;;;;;;5090594;28;20197;-73
2022/08/02 05:36:23;;;;;;;5.83;5.33;;;;;;;;;;5083107;28;20260;-73
2022/08/02 05:38:49;;;;;;;6.43;5.90;;;;;;;;;;5090139;28;20187;-73
2022/08/02 05:41:17;;;;;;;6.37;5.87;;;;;;;;;;5078078;28;20239;-73
2022/08/02 05:43:44;;;;;;;6.17;5.17;;;;;;;;;;5073282;28;20243;-73
2022/08/02 05:46:10;;;;;;;6.00;5.50;;;;;;;;;;5066055;28;20264;-73
2022/08/02 05:48:36;;;;;;;6.30;5.80;;;;;;;;;;5086736;28;20601;-73
2022/08/02 05:51:03;;;;;;;7.30;6.70;;;;;;;;;;5068894;28;20247;-73
2022/08/02 05:53:32;;;;;;;6.47;5.87;;;;;;;;;;5080520;28;20215;-73
2022/08/02 05:56:19;;;;;;;6.17;5.67;;;;;;;;;;5090485;28;20645;-73
2022/08/02 05:58:57;;;;;;;6.03;5.53;;;;;;;;;;5071036;28;20193;-73
2022/08/02 06:01:32;;;;;;;6.40;5.87;;;;;;;;;;5083518;28;20211;-73
2022/08/02 06:03:59;;;;;;;5.80;5.40;;;;;;;;;;5080818;28;20646;-73
2022/08/02 06:06:26;;;;;;;7.10;6.40;;;;;;;;;;5076332;28;20728;-73
2022/08/02 06:08:58;;;;;;;6.63;5.93;;;;;;;;;;5069789;28;20185;-73
2022/08/02 06:11:31;;;;;;;7.67;6.97;;;;;;;;;;5078170;28;20200;-73
2022/08/02 06:13:57;;;;;;;7.77;7.00;;;;;;;;;;5091102;28;20226;-73
2022/08/02 06:16:26;;;;;;;6.90;6.27;;;;;;;;;;5082825;28;20177;-73
2022/08/02 06:18:53;;;;;;;7.10;6.50;;;;;;;;;;5074573;28;20272;-73
2022/08/02 06:21:20;;;;;;;7.10;6.50;;;;;;;;;;5085803;28;20230;-73
2022/08/02 06:23:47;;;;;;;6.40;5.80;;;;;;;;;;5085395;28;20205;-73
2022/08/02 06:26:14;;;;;;;6.63;6.03;;;;;;;;;;5092096;28;20233;-73
2022/08/02 06:28:41;;;;;;;6.50;5.80;;;;;;;;;;5077261;28;20194;-73
2022/08/02 06:31:07;;;;;;;5.60;5.20;;;;;;;;;;5071818;28;20675;-73
2022/08/02 06:33:34;;;;;;;5.10;4.70;;;;;;;;;;5065390;28;20193;-73
2022/08/02 06:36:03;;;;;;;5.90;5.40;;;;;;;;;;5060573;28;20646;-73
2022/08/02 06:38:35;;;;;;;6.03;5.53;;;;;;;;;;5070556;28;20192;-73
2022/08/02 06:41:07;;;;;;;5.03;4.63;;;;;;;;;;5066896;28;20569;-73
2022/08/02 06:44:08;;;;;;;6.40;5.30;;;;;;;;;;5069243;28;20577;-73
2022/08/02 06:46:35;;;;;;;6.43;5.40;;;;;;;;;;5042882;28;20178;-73
2022/08/02 06:49:01;;;;;;;6.00;5.50;;;;;;;;;;5059771;28;20294;-73
2022/08/02 06:51:27;;;;;;;5.37;4.97;;;;;;;;;;5068659;28;20201;-73
2022/08/02 06:53:54;;;;;;;6.53;4.90;;;;;;;;;;5072538;28;20193;-73
2022/08/02 06:56:20;;;;;;;5.60;5.20;;;;;;;;;;5075723;28;20627;-73
2022/08/02 06:58:46;;;;;;;5.50;5.00;;;;;;;;;;5075675;28;20185;-73
2022/08/02 07:01:12;;;;;;;5.53;5.13;;;;;;;;;;5080295;28;20549;-73
2022/08/02 07:03:39;;;;;;;6.50;5.80;;;;;;;;;;5084351;28;20271;-73
2022/08/02 07:06:08;;;;;;;7.03;6.43;;;;;;;;;;5055456;28;20259;-73
2022/08/02 07:08:37;;;;;;;6.80;6.27;;;;;;;;;;5065340;28;20185;-73
2022/08/02 07:11:07;;;;;;;6.67;6.17;;;;;;;;;;5070955;28;20700;-73
2022/08/02 07:13:34;;;;;;;5.97;5.37;;;;;;;;;;5077095;28;20276;-73
2022/08/02 07:16:01;;;;;;;6.40;5.03;;;;;;;;;;5063452;28;20182;-73
2022/08/02 07:18:27;;;;;;;7.13;4.90;;;;;;;;;;5069124;28;20588;-73
2022/08/02 07:20:54;;;;;;;5.80;4.50;;;;;;;;;;5068479;28;20189;-73
2022/08/02 07:23:20;;;;;;;5.93;4.70;;;;;;;;;;5069646;28;20255;-73
2022/08/02 07:25:46;;;;;;;5.20;4.70;;;;;;;;;;5064821;28;20209;-73
2022/08/02 07:28:16;;;;;;;5.40;4.90;;;;;;;;;;5086701;28;20196;-73
2022/08/02 07:30:43;;;;;;;4.40;4.10;;;;;;;;;;5086580;28;20218;-73
2022/08/02 07:33:09;;;;;;;4.73;4.33;;;;;;;;;;5078153;28;20567;-73
2022/08/02 07:35:35;;;;;;;4.93;4.53;;;;;;;;;;5088128;28;20211;-72
2022/08/02 07:38:02;;;;;;;4.80;4.40;;;;;;;;;;5087871;28;20203;-73
2022/08/02 07:40:28;;;;;;;4.37;4.07;;;;;;;;;;5059407;28;20570;-73
2022/08/02 07:42:55;;;;;;;4.60;4.30;;;;;;;;;;5076807;28;20749;-76
2022/08/02 07:45:21;;;;;;;3.80;3.40;;;;;;;;;;5075252;28;20242;-79
2022/08/02 07:47:48;;;;;;;3.80;3.47;;;;;;;;;;5073317;28;20186;-78
2022/08/02 07:50:15;;;;;;;3.57;3.27;;;;;;;;;;5076422;28;20173;-78
2022/08/02 07:52:42;;;;;;;3.87;3.27;;;;;;;;;;5074534;28;20257;-78
2022/08/02 07:55:09;;;;;;;3.70;3.40;;;;;;;;;;5074376;28;20201;-78
2022/08/02 07:57:35;;;;;;;3.63;3.30;;;;;;;;;;5071152;28;20172;-78
2022/08/02 08:00:03;;;;;;;3.37;3.13;;;;;;;;;;5071079;28;20618;-79
2022/08/02 08:02:38;;;;;;;3.33;3.13;;;;;;;;;;5078238;28;20176;-77
2022/08/02 08:05:05;;;;;;;3.20;2.90;;;;;;;;;;5071097;28;20363;-78
2022/08/02 08:07:32;;;;;;;3.63;3.07;;;;;;;;;;5073108;28;20177;-78
2022/08/02 08:09:58;;;;;;;3.27;3.07;;;;;;;;;;5079399;28;20270;-77
2022/08/02 08:12:25;;;;;;;2.97;2.60;;;;;;;;;;5077830;28;20282;-78
2022/08/02 08:14:51;;;;;;;2.80;2.60;;;;;;;;;;5070322;28;20204;-77
2022/08/02 08:17:17;;;;;;;2.50;2.30;;;;;;;;;;5063241;28;20181;-77
2022/08/02 08:19:43;;;;;;;3.93;2.70;;;;;;;;;;5087340;28;20172;-78
2022/08/02 08:22:09;;;;;;;3.70;2.37;;;;;;;;;;5071641;28;20636;-78
2022/08/02 08:24:39;;;;;;;2.50;2.30;;;;;;;;;;5073995;28;20204;-79
2022/08/02 08:27:09;;;;;;;5.23;2.70;;;;;;;;;;5070447;28;20192;-79
2022/08/02 08:29:35;;;;;;;2.43;2.23;;;;;;;;;;5087584;28;20181;-79
2022/08/02 08:32:01;;;;;;;2.83;2.37;;;;;;;;;;5078353;28;20212;-78
2022/08/02 08:34:30;;;;;;;3.80;2.30;;;;;;;;;;5072568;28;20200;-78
2022/08/02 08:36:56;;;;;;;2.60;2.40;;;;;;;;;;5070748;28;20178;-78
2022/08/02 08:39:22;;;;;;;2.57;2.37;;;;;;;;;;5073192;28;20609;-78
2022/08/02 08:41:48;;;;;;;2.53;2.33;;;;;;;;;;5079842;28;20624;-79
2022/08/02 08:44:14;;;;;;;2.87;2.00;;;;;;;;;;5092077;28;20224;-79
2022/08/02 08:46:43;;;;;;;2.97;2.40;;;;;;;;;;5082224;28;20189;-78
2022/08/02 08:49:11;;;;;;;2.73;2.27;;;;;;;;;;5083140;28;20185;-79
2022/08/02 08:51:39;;;;;;;4.43;2.40;;;;;;;;;;5082306;28;20211;-79
2022/08/02 08:54:07;;;;;;;2.60;2.40;;;;;;;;;;5083958;28;20689;-79
2022/08/02 08:56:34;;;;;;;2.20;2.00;;;;;;;;;;5052566;28;20279;-78
2022/08/02 08:59:02;;;;;;;3.70;2.20;;;;;;;;;;5058717;28;20181;-78
2022/08/02 09:01:28;;;;;;;3.80;2.27;;;;;;;;;;5075522;28;20185;-79
2022/08/02 09:03:54;;;;;;;2.40;2.20;;;;;;;;;;5083225;28;20200;-77
2022/08/02 09:06:21;;;;;;;2.37;2.10;;;;;;;;;;5073120;28;20695;-77
2022/08/02 09:08:47;;;;;;;2.30;2.10;;;;;;;;;;5074064;28;20219;-79
2022/08/02 09:11:14;;;;;;;3.73;2.10;;;;;;;;;;5062522;28;20209;-79
2022/08/02 09:13:49;;;;;;;2.30;2.10;;;;;;;;;;5051141;28;20200;-78
2022/08/02 09:16:15;;;;;;;2.00;1.90;;;;;;;;;;5051242;28;20186;-79
2022/08/02 09:18:46;;;;;;;1.97;1.87;;;;;;;;;;5052178;28;20648;-79
2022/08/02 09:21:13;;;;;;;2.07;1.87;;;;;;;;;;5052746;28;20177;-79
2022/08/02 09:23:49;;;;;;;3.10;2.10;;;;;;;;;;5075489;28;20252;-77
2022/08/02 09:26:17;;;;;;;2.00;1.90;;;;;;;;;;5076752;28;20642;-78
2022/08/02 09:28:45;;;;;;;2.00;1.90;;;;;;;;;;5068514;28;20194;-78
2022/08/02 09:31:15;;;;;;;2.27;2.07;;;;;;;;;;5083171;28;20224;-79
2022/08/02 09:33:43;;;;;;;1.80;1.70;;;;;;;;;;5091794;28;20185;-78
2022/08/02 09:36:11;;;;;;;2.53;2.00;;;;;;;;;;5083460;28;20205;-78
2022/08/02 09:38:38;;;;;;;2.43;1.80;;;;;;;;;;5091918;28;20222;-78
2022/08/02 09:41:05;;;;;;;1.90;1.80;;;;;;;;;;5075527;28;20192;-79
2022/08/02 09:43:35;;;;;;;1.83;1.70;;;;;;;;;;5084630;28;20197;-79
2022/08/02 09:46:11;;;;;;;2.13;1.93;;;;;;;;;;5076426;28;20703;-79
2022/08/02 09:48:56;;;;;;;2.03;1.83;;;;;;;;;;5093838;28;20210;-79
2022/08/02 09:51:26;;;;;;;2.43;2.07;;;;;;;;;;5069469;28;20212;-79
2022/08/02 09:53:54;;;;;;;1.90;1.80;;;;;;;;;;5090933;28;20254;-79
2022/08/02 09:56:21;;;;;;;1.80;1.70;;;;;;;;;;5093895;28;20184;-78
2022/08/02 09:58:47;;;;;;;2.00;1.90;;;;;;;;;;5067034;28;20253;-78
2022/08/02 10:01:13;;;;;;;1.87;1.77;;;;;;;;;;5055836;28;20272;-79
2022/08/02 10:03:56;;;;;;;1.90;1.80;;;;;;;;;;5055643;28;20198;-79
2022/08/02 10:06:23;;;;;;;2.03;1.90;;;;;;;;;;5075112;28;20185;-78
2022/08/02 10:08:49;;;;;;;1.90;1.80;;;;;;;;;;5085559;28;20187;-79
2022/08/02 10:11:15;;;;;;;2.00;1.90;;;;;;;;;;5075865;28;20252;-79
2022/08/02 10:13:42;;;;;;;1.90;1.80;;;;;;;;;;5076014;28;20177;-79
2022/08/02 10:16:08;;;;;;;2.70;2.20;;;;;;;;;;5075742;28;20184;-78
2022/08/02 10:18:35;;;;;;;2.93;2.13;;;;;;;;;;5079265;28;20181;-78
2022/08/02 10:21:01;;;;;;;2.00;1.80;;;;;;;;;;5076197;28;20196;-77
2022/08/02 10:23:30;;;;;;;2.00;1.80;;;;;;;;;;5077200;28;20193;-78
2022/08/02 10:25:56;;;;;;;2.17;1.80;;;;;;;;;;5078047;28;20183;-78
2022/08/02 10:28:36;;;;;;;1.87;1.77;;;;;;;;;;5080937;28;20198;-78
2022/08/02 10:31:04;;;;;;;1.80;1.70;;;;;;;;;;5071212;28;20208;-78
2022/08/02 10:33:31;;;;;;;1.70;1.60;;;;;;;;;;5086583;28;20191;-78
2022/08/02 10:35:58;;;;;;;1.50;1.40;;;;;;;;;;5086004;28;20181;-77
2022/08/02 10:38:25;;;;;;;3.73;1.40;;;;;;;;;;5085933;28;20188;-78
2022/08/02 10:40:53;;;;;;;1.70;1.60;;;;;;;;;;5077906;28;20181;-77
2022/08/02 10:43:31;;;;;;;1.70;1.57;;;;;;;;;;5089885;28;20836;-78
2022/08/02 10:46:20;;;;;;;1.60;1.50;;;;;;;;;;5093965;28;20171;-77
2022/08/02 10:49:01;;;;;;;1.70;1.60;;;;;;;;;;5086541;28;20193;-78
2022/08/02 10:51:46;;;;;;;2.27;1.70;;;;;;;;;;5081735;28;20791;-77
2022/08/02 10:54:19;;;;;;;1.67;1.57;;;;;;;;;;5082725;28;20203;-78
2022/08/02 10:56:47;;;;;;;2.20;1.40;;;;;;;;;;5093659;28;20177;-78
2022/08/02 10:59:25;;;;;;;1.77;1.50;;;;;;;;;;5079715;28;20189;-78
2022/08/02 11:01:52;;;;;;;1.60;1.50;;;;;;;;;;5084206;28;20615;-78
2022/08/02 11:04:18;;;;;;;1.60;1.50;;;;;;;;;;5067926;28;20202;-78
2022/08/02 11:07:03;;;;;;;1.50;1.40;;;;;;;;;;5068585;28;20185;-77
2022/08/02 11:09:31;;;;;;;1.50;1.40;;;;;;;;;;5094509;28;20282;-78
2022/08/02 11:12:04;;;;;;;1.30;1.20;;;;;;;;;;5075029;28;20210;-78
2022/08/02 11:14:31;;;;;;;1.30;1.20;;;;;;;;;;5083780;28;20693;-79
2022/08/02 11:16:57;;;;;;;1.50;1.40;;;;;;;;;;5076782;28;20181;-78
2022/08/02 11:19:23;;;;;;;1.47;1.37;;;;;;;;;;5091365;28;21029;-77
2022/08/02 11:22:06;;;;;;;1.47;1.37;;;;;;;;;;5071561;28;20197;-78
2022/08/02 11:24:36;;;;;;;1.23;1.20;;;;;;;;;;5063294;28;20211;-77
2022/08/02 11:27:03;;;;;;;3.20;1.60;;;;;;;;;;5059531;28;20262;-78
2022/08/02 11:29:39;;;;;;;1.57;1.43;;;;;;;;;;5073200;28;20231;-78
2022/08/02 11:32:07;;;;;;;1.67;1.33;;;;;;;;;;5063077;28;20252;-78
2022/08/02 11:34:33;;;;;;;1.33;1.23;;;;;;;;;;5073586;28;20240;-77
2022/08/02 11:36:59;;;;;;;1.60;1.40;;;;;;;;;;5070813;28;20176;-77
2022/08/02 11:39:26;;;;;;;1.60;1.50;;;;;;;;;;5071617;28;20185;-78
2022/08/02 11:41:53;;;;;;;1.73;1.37;;;;;;;;;;5071001;28;20213;-76
2022/08/02 11:44:20;;;;;;;1.70;1.60;;;;;;;;;;5064035;28;20716;-77
2022/08/02 11:46:55;;;;;;;2.00;1.20;;;;;;;;;;5054872;28;20179;-77
2022/08/02 11:49:22;;;;;;;1.13;1.13;;;;;;;;;;5075070;28;20168;-77
2022/08/02 11:51:52;;;;;;;1.80;1.20;;;;;;;;;;5073566;28;20207;-75
2022/08/02 11:54:25;;;;;;;1.50;1.40;;;;;;;;;;5074312;28;20204;-77
2022/08/02 11:56:51;;;;;;;1.40;1.30;;;;;;;;;;5073946;28;20178;-79
2022/08/02 11:59:17;;;;;;;1.13;1.10;;;;;;;;;;5068543;28;20313;-77
2022/08/02 12:01:44;;;;;;;1.30;1.20;;;;;;;;;;5067732;28;20596;-77
2022/08/02 12:04:10;;;;;;;1.20;1.20;;;;;;;;;;5066374;28;20580;-78
2022/08/02 12:06:36;;;;;;;1.50;1.40;;;;;;;;;;5071842;28;20279;-79
2022/08/02 12:09:04;;;;;;;1.30;1.20;;;;;;;;;;5082443;28;20200;-78
2022/08/02 12:11:30;;;;;;;1.77;1.30;;;;;;;;;;5063427;28;20216;-78
2022/08/02 12:13:56;;;;;;;1.73;1.20;;;;;;;;;;5060758;28;20207;-76
2022/08/02 12:19:18;;;;;;;1.63;1.40;;;;;;;;;;5071684;28;20228;-79
2022/08/02 12:21:44;;;;;;;1.53;1.20;;;;;;;;;;5071031;28;20191;-79
2022/08/02 12:24:11;;;;;;;1.40;1.30;;;;;;;;;;5074392;28;20204;-78
2022/08/02 12:26:43;;;;;;;1.40;1.30;;;;;;;;;;5067336;28;20185;-75
2022/08/02 12:29:10;;;;;;;1.60;1.50;;;;;;;;;;5058657;28;20243;-75
2022/08/02 12:31:47;;;;;;;2.20;1.30;;;;;;;;;;5061640;28;20288;-74
2022/08/02 12:34:16;;;;;;;2.57;1.50;;;;;;;;;;5060811;28;20225;-74
2022/08/02 12:36:44;;;;;;;2.37;1.40;;;;;;;;;;5063062;28;20184;-74
2022/08/02 12:39:11;;;;;;;1.93;1.20;;;;;;;;;;5051150;28;20646;-74
2022/08/02 12:41:38;;;;;;;1.60;1.30;;;;;;;;;;5056012;28;20653;-75
2022/08/02 12:44:04;;;;;;;2.17;1.30;;;;;;;;;;5051182;28;20224;-74
2022/08/02 12:46:30;;;;;;;1.50;1.40;;;;;;;;;;5051068;28;20651;-75
2022/08/02 12:48:58;;;;;;;2.30;1.20;;;;;;;;;;5058591;28;20598;-74
2022/08/02 12:51:33;;;;;;;1.37;1.27;;;;;;;;;;5070220;28;20818;-75
2022/08/02 12:54:13;;;;;;;1.40;1.30;;;;;;;;;;5071094;28;20206;-75
2022/08/02 12:56:40;;;;;;;2.57;1.20;;;;;;;;;;5071126;28;20231;-75
2022/08/02 12:59:06;;;;;;;1.27;1.10;;;;;;;;;;5071009;28;20210;-75
2022/08/02 13:01:32;;;;;;;1.40;1.30;;;;;;;;;;5064983;28;20190;-75
2022/08/02 13:03:58;;;;;;;1.40;1.30;;;;;;;;;;5062495;28;20209;-75
2022/08/02 13:06:25;;;;;;;1.33;1.23;;;;;;;;;;5074585;28;20187;-75
2022/08/02 13:08:53;;;;;;;1.30;1.20;;;;;;;;;;5073203;28;20186;-75
2022/08/02 13:11:20;;;;;;;1.40;1.30;;;;;;;;;;5057957;28;20234;-75
2022/08/02 13:13:46;;;;;;;1.27;1.17;;;;;;;;;;5062129;28;20201;-75
2022/08/02 13:16:12;;;;;;;2.23;1.40;;;;;;;;;;5058260;28;20314;-75
2022/08/02 13:18:39;;;;;;;1.47;1.20;;;;;;;;;;5063975;28;20181;-75
2022/08/02 13:21:06;;;;;;;1.00;1.00;;;;;;;;;;5080047;28;20653;-75
2022/08/02 13:23:32;;;;;;;1.20;1.10;;;;;;;;;;5077917;28;20174;-75
2022/08/02 13:25:59;;;;;;;1.33;1.07;;;;;;;;;;5082398;28;20186;-75
2022/08/02 13:28:25;;;;;;;2.13;1.10;;;;;;;;;;5079977;28;20174;-75
2022/08/02 13:30:51;;;;;;;1.30;1.20;;;;;;;;;;5068159;28;20219;-75
2022/08/02 13:33:17;;;;;;;1.08;1.02;;;;;;;;;;5077438;28;20216;-75
2022/08/02 13:35:44;;;;;;;1.30;1.10;;;;;;;;;;5072461;28;20209;-75
2022/08/02 13:38:11;;;;;;;1.30;1.20;;;;;;;;;;5077522;28;20534;-75
2022/08/02 13:41:07;;;;;;;1.67;1.52;;;;;;;;;;5074276;28;20181;-75
2022/08/02 13:43:23;;;;;;;1.45;1.20;;;;;;;;;;5085066;28;20204;-75
2022/08/02 13:45:49;;;;;;;1.00;1.00;;;;;;;;;;5082653;28;20241;-75
2022/08/02 13:48:15;;;;;;;2.05;1.10;;;;;;;;;;5077582;28;20248;-75
2022/08/02 13:50:41;;;;;;;1.20;1.10;;;;;;;;;;5072508;28;20216;-75
2022/08/02 13:53:08;;;;;;;1.60;1.20;;;;;;;;;;5084780;28;20200;-75
2022/08/02 13:55:34;;;;;;;1.42;1.10;;;;;;;;;;5080036;28;20673;-75
2022/08/02 13:58:01;;;;;;;1.00;1.00;;;;;;;;;;5064470;28;20206;-75
2022/08/02 14:00:27;;;;;;;1.20;1.10;;;;;;;;;;5079017;28;20179;-75
2022/08/02 14:02:53;;;;;;;1.40;1.27;;;;;;;;;;5079754;28;20750;-75
2022/08/02 14:05:20;;;;;;;2.10;1.20;;;;;;;;;;5087586;28;20553;-75
2022/08/02 14:07:46;;;;;;;2.05;1.20;;;;;;;;;;5072286;28;20191;-75
2022/08/02 14:10:12;;;;;;;2.35;1.15;;;;;;;;;;5066669;28;20683;-75
2022/08/02 14:12:38;;;;;;;1.40;1.10;;;;;;;;;;5068067;28;20656;-75
2022/08/02 14:15:05;;;;;;;4.45;1.10;;;;;;;;;;5069760;28;20229;-76
2022/08/02 14:17:31;;;;;;;1.00;1.00;;;;;;;;;;5085467;28;20275;-80
2022/08/02 14:19:57;;;;;;;1.30;1.20;;;;;;;;;;5082446;28;20210;-81
2022/08/02 14:22:23;;;;;;;1.00;1.00;;;;;;;;;;5084192;28;20254;-80
2022/08/02 14:24:49;;;;;;;2.67;1.10;;;;;;;;;;5083981;28;20212;-80
2022/08/02 14:27:15;;;;;;;2.08;1.00;;;;;;;;;;5079542;28;20199;-80
2022/08/02 14:29:42;;;;;;;2.13;1.00;;;;;;;;;;5081456;28;20649;-81
2022/08/02 14:32:08;;;;;;;1.30;1.10;;;;;;;;;;5075319;28;20208;-81
2022/08/02 14:34:34;;;;;;;1.20;1.10;;;;;;;;;;5075140;28;20213;-79
2022/08/02 14:37:00;;;;;;;3.25;1.10;;;;;;;;;;5072654;28;20307;-81
2022/08/02 14:39:26;;;;;;;3.67;1.13;;;;;;;;;;5071625;28;20683;-81
2022/08/02 14:41:52;;;;;;;1.33;1.20;;;;;;;;;;5073818;28;20181;-80
2022/08/02 14:44:19;;;;;;;2.80;1.38;;;;;;;;;;5076560;28;20267;-80
2022/08/02 14:46:45;;;;;;;1.20;1.08;;;;;;;;;;5075392;28;20203;-80
2022/08/02 14:49:11;;;;;;;1.33;1.23;;;;;;;;;;5055633;28;20176;-81
2022/08/02 14:51:38;;;;;;;1.33;1.10;;;;;;;;;;5055843;28;20215;-79